sensor_id;sensor_type;location;lat;lon;timestamp;temperature;humidity
27413;DHT22;14871;52.702;5.230;2022-07-29T00:00:40;20.30;81.90
27413;DHT22;14871;52.702;5.230;2022-07-29T00:03:10;20.30;82.00
27413;DHT22;14871;52.702;5.230;2022-07-29T00:05:35;20.30;82.00
27413;DHT22;14871;52.702;5.230;2022-07-29T00:08:01;20.30;81.70
27413;DHT22;14871;52.702;5.230;2022-07-29T00:10:27;20.20;81.90
27413;DHT22;14871;52.702;5.230;2022-07-29T00:12:52;20.20;82.00
27413;DHT22;14871;52.702;5.230;2022-07-29T00:15:18;20.10;82.60
27413;DHT22;14871;52.702;5.230;2022-07-29T00:17:43;20.10;82.50
27413;DHT22;14871;52.702;5.230;2022-07-29T00:20:09;20.00;83.00
27413;DHT22;14871;52.702;5.230;2022-07-29T00:22:38;20.00;83.10
27413;DHT22;14871;52.702;5.230;2022-07-29T00:25:04;20.00;83.10
27413;DHT22;14871;52.702;5.230;2022-07-29T00:27:30;20.10;83.00
27413;DHT22;14871;52.702;5.230;2022-07-29T00:29:56;20.10;83.00
27413;DHT22;14871;52.702;5.230;2022-07-29T00:32:21;20.10;82.90
27413;DHT22;14871;52.702;5.230;2022-07-29T00:34:47;20.10;82.80
27413;DHT22;14871;52.702;5.230;2022-07-29T00:37:31;20.00;82.90
27413;DHT22;14871;52.702;5.230;2022-07-29T00:39:56;19.90;83.40
27413;DHT22;14871;52.702;5.230;2022-07-29T00:42:22;19.90;83.50
27413;DHT22;14871;52.702;5.230;2022-07-29T00:44:48;19.90;83.40
27413;DHT22;14871;52.702;5.230;2022-07-29T00:47:13;19.90;83.30
27413;DHT22;14871;52.702;5.230;2022-07-29T00:49:40;20.00;83.30
27413;DHT22;14871;52.702;5.230;2022-07-29T00:52:07;20.00;83.10
27413;DHT22;14871;52.702;5.230;2022-07-29T00:54:34;19.90;83.50
27413;DHT22;14871;52.702;5.230;2022-07-29T00:57:00;19.90;83.70
27413;DHT22;14871;52.702;5.230;2022-07-29T00:59:26;19.90;83.60
27413;DHT22;14871;52.702;5.230;2022-07-29T01:01:53;20.00;83.80
27413;DHT22;14871;52.702;5.230;2022-07-29T01:04:19;19.90;84.30
27413;DHT22;14871;52.702;5.230;2022-07-29T01:06:45;19.90;84.40
27413;DHT22;14871;52.702;5.230;2022-07-29T01:09:12;19.90;84.80
27413;DHT22;14871;52.702;5.230;2022-07-29T01:11:38;19.90;85.70
27413;DHT22;14871;52.702;5.230;2022-07-29T01:14:06;19.90;86.10
27413;DHT22;14871;52.702;5.230;2022-07-29T01:16:41;20.00;86.60
27413;DHT22;14871;52.702;5.230;2022-07-29T01:21:55;19.90;87.30
27413;DHT22;14871;52.702;5.230;2022-07-29T01:30:21;19.80;88.00
27413;DHT22;14871;52.702;5.230;2022-07-29T01:32:50;19.80;87.70
27413;DHT22;14871;52.702;5.230;2022-07-29T01:35:34;19.80;88.20
27413;DHT22;14871;52.702;5.230;2022-07-29T01:38:08;19.80;87.90
27413;DHT22;14871;52.702;5.230;2022-07-29T01:40:47;19.70;88.00
27413;DHT22;14871;52.702;5.230;2022-07-29T01:43:18;19.80;87.70
27413;DHT22;14871;52.702;5.230;2022-07-29T01:45:51;19.80;88.00
27413;DHT22;14871;52.702;5.230;2022-07-29T01:48:24;19.70;88.00
27413;DHT22;14871;52.702;5.230;2022-07-29T01:51:12;19.70;88.30
27413;DHT22;14871;52.702;5.230;2022-07-29T01:53:46;19.70;88.30
27413;DHT22;14871;52.702;5.230;2022-07-29T01:56:14;19.70;88.60
27413;DHT22;14871;52.702;5.230;2022-07-29T01:58:43;19.60;88.40
27413;DHT22;14871;52.702;5.230;2022-07-29T02:01:12;19.50;88.70
27413;DHT22;14871;52.702;5.230;2022-07-29T02:03:39;19.60;88.80
27413;DHT22;14871;52.702;5.230;2022-07-29T02:06:07;19.60;89.00
27413;DHT22;14871;52.702;5.230;2022-07-29T02:08:35;19.60;88.90
27413;DHT22;14871;52.702;5.230;2022-07-29T02:11:03;19.60;88.90
27413;DHT22;14871;52.702;5.230;2022-07-29T02:13:31;19.60;89.00
27413;DHT22;14871;52.702;5.230;2022-07-29T02:15:58;19.50;89.10
27413;DHT22;14871;52.702;5.230;2022-07-29T02:18:27;19.50;89.50
27413;DHT22;14871;52.702;5.230;2022-07-29T02:20:54;19.50;89.80
27413;DHT22;14871;52.702;5.230;2022-07-29T02:23:22;19.50;89.50
27413;DHT22;14871;52.702;5.230;2022-07-29T02:25:51;19.40;89.60
27413;DHT22;14871;52.702;5.230;2022-07-29T02:28:19;19.50;89.80
27413;DHT22;14871;52.702;5.230;2022-07-29T02:30:46;19.40;90.00
27413;DHT22;14871;52.702;5.230;2022-07-29T02:33:14;19.40;90.00
27413;DHT22;14871;52.702;5.230;2022-07-29T02:35:43;19.40;90.40
27413;DHT22;14871;52.702;5.230;2022-07-29T02:38:13;19.20;90.50
27413;DHT22;14871;52.702;5.230;2022-07-29T02:41:01;19.30;90.50
27413;DHT22;14871;52.702;5.230;2022-07-29T02:43:28;19.30;90.50
27413;DHT22;14871;52.702;5.230;2022-07-29T02:45:54;19.30;91.00
27413;DHT22;14871;52.702;5.230;2022-07-29T02:48:31;19.30;90.60
27413;DHT22;14871;52.702;5.230;2022-07-29T02:51:05;19.20;90.80
27413;DHT22;14871;52.702;5.230;2022-07-29T02:53:33;19.20;90.80
27413;DHT22;14871;52.702;5.230;2022-07-29T02:56:06;19.20;90.70
27413;DHT22;14871;52.702;5.230;2022-07-29T02:58:41;19.20;90.70
27413;DHT22;14871;52.702;5.230;2022-07-29T03:01:30;19.20;90.90
27413;DHT22;14871;52.702;5.230;2022-07-29T03:03:56;19.20;90.80
27413;DHT22;14871;52.702;5.230;2022-07-29T03:06:26;19.20;90.80
27413;DHT22;14871;52.702;5.230;2022-07-29T03:08:54;19.10;91.00
27413;DHT22;14871;52.702;5.230;2022-07-29T03:11:20;19.20;91.00
27413;DHT22;14871;52.702;5.230;2022-07-29T03:13:47;19.20;91.10
27413;DHT22;14871;52.702;5.230;2022-07-29T03:16:13;19.20;91.10
27413;DHT22;14871;52.702;5.230;2022-07-29T03:18:39;19.10;91.20
27413;DHT22;14871;52.702;5.230;2022-07-29T03:21:05;19.20;91.30
27413;DHT22;14871;52.702;5.230;2022-07-29T03:23:31;19.20;91.20
27413;DHT22;14871;52.702;5.230;2022-07-29T03:25:57;19.20;91.20
27413;DHT22;14871;52.702;5.230;2022-07-29T03:28:23;19.20;91.20
27413;DHT22;14871;52.702;5.230;2022-07-29T03:30:49;19.10;91.40
27413;DHT22;14871;52.702;5.230;2022-07-29T03:33:15;19.20;91.40
27413;DHT22;14871;52.702;5.230;2022-07-29T03:35:41;19.20;91.30
27413;DHT22;14871;52.702;5.230;2022-07-29T03:38:07;19.20;91.40
27413;DHT22;14871;52.702;5.230;2022-07-29T03:40:47;19.10;91.60
27413;DHT22;14871;52.702;5.230;2022-07-29T03:43:15;19.20;91.60
27413;DHT22;14871;52.702;5.230;2022-07-29T03:45:45;19.20;91.60
27413;DHT22;14871;52.702;5.230;2022-07-29T03:48:14;19.10;91.60
27413;DHT22;14871;52.702;5.230;2022-07-29T03:50:40;19.10;91.80
27413;DHT22;14871;52.702;5.230;2022-07-29T03:53:06;19.20;91.70
27413;DHT22;14871;52.702;5.230;2022-07-29T03:55:37;19.10;91.90
27413;DHT22;14871;52.702;5.230;2022-07-29T03:58:05;19.20;91.80
27413;DHT22;14871;52.702;5.230;2022-07-29T04:00:34;19.10;91.90
27413;DHT22;14871;52.702;5.230;2022-07-29T04:03:00;19.10;91.90
27413;DHT22;14871;52.702;5.230;2022-07-29T04:05:26;19.20;91.90
27413;DHT22;14871;52.702;5.230;2022-07-29T04:07:51;19.20;91.90
27413;DHT22;14871;52.702;5.230;2022-07-29T04:10:17;19.20;91.80
27413;DHT22;14871;52.702;5.230;2022-07-29T04:12:44;19.10;91.90
27413;DHT22;14871;52.702;5.230;2022-07-29T04:15:10;19.20;91.80
27413;DHT22;14871;52.702;5.230;2022-07-29T04:17:36;19.20;91.90
27413;DHT22;14871;52.702;5.230;2022-07-29T04:20:01;19.20;91.90
27413;DHT22;14871;52.702;5.230;2022-07-29T04:22:28;19.10;92.00
27413;DHT22;14871;52.702;5.230;2022-07-29T04:24:54;19.10;92.00
27413;DHT22;14871;52.702;5.230;2022-07-29T04:27:20;19.10;92.00
27413;DHT22;14871;52.702;5.230;2022-07-29T04:29:45;19.10;91.90
27413;DHT22;14871;52.702;5.230;2022-07-29T04:32:11;19.20;91.90
27413;DHT22;14871;52.702;5.230;2022-07-29T04:34:36;19.20;91.90
27413;DHT22;14871;52.702;5.230;2022-07-29T04:37:02;19.20;91.80
27413;DHT22;14871;52.702;5.230;2022-07-29T04:39:28;19.20;91.70
27413;DHT22;14871;52.702;5.230;2022-07-29T04:41:53;19.20;91.80
27413;DHT22;14871;52.702;5.230;2022-07-29T04:44:19;19.10;91.90
27413;DHT22;14871;52.702;5.230;2022-07-29T04:46:45;19.00;91.90
27413;DHT22;14871;52.702;5.230;2022-07-29T04:49:10;19.10;92.00
27413;DHT22;14871;52.702;5.230;2022-07-29T04:51:36;19.10;92.00
27413;DHT22;14871;52.702;5.230;2022-07-29T04:54:01;19.10;91.90
27413;DHT22;14871;52.702;5.230;2022-07-29T04:56:27;19.10;91.90
27413;DHT22;14871;52.702;5.230;2022-07-29T04:58:53;19.10;91.90
27413;DHT22;14871;52.702;5.230;2022-07-29T05:01:19;19.10;92.00
27413;DHT22;14871;52.702;5.230;2022-07-29T05:03:44;19.10;92.00
27413;DHT22;14871;52.702;5.230;2022-07-29T05:06:10;19.30;91.90
27413;DHT22;14871;52.702;5.230;2022-07-29T05:08:36;19.20;91.90
27413;DHT22;14871;52.702;5.230;2022-07-29T05:11:02;19.20;92.00
27413;DHT22;14871;52.702;5.230;2022-07-29T05:13:28;19.30;92.10
27413;DHT22;14871;52.702;5.230;2022-07-29T05:15:54;19.30;91.90
27413;DHT22;14871;52.702;5.230;2022-07-29T05:18:20;19.20;92.00
27413;DHT22;14871;52.702;5.230;2022-07-29T05:20:45;19.20;92.00
27413;DHT22;14871;52.702;5.230;2022-07-29T05:23:11;19.20;92.00
27413;DHT22;14871;52.702;5.230;2022-07-29T05:25:38;19.20;92.10
27413;DHT22;14871;52.702;5.230;2022-07-29T05:28:04;19.20;92.10
27413;DHT22;14871;52.702;5.230;2022-07-29T05:30:30;19.20;92.20
27413;DHT22;14871;52.702;5.230;2022-07-29T05:32:55;19.30;92.20
27413;DHT22;14871;52.702;5.230;2022-07-29T05:35:21;19.30;92.10
27413;DHT22;14871;52.702;5.230;2022-07-29T05:37:47;19.30;92.10
27413;DHT22;14871;52.702;5.230;2022-07-29T05:40:12;19.30;92.10
27413;DHT22;14871;52.702;5.230;2022-07-29T05:42:38;19.30;92.20
27413;DHT22;14871;52.702;5.230;2022-07-29T05:45:04;19.40;92.20
27413;DHT22;14871;52.702;5.230;2022-07-29T05:47:30;19.50;92.10
27413;DHT22;14871;52.702;5.230;2022-07-29T05:49:56;19.40;92.10
27413;DHT22;14871;52.702;5.230;2022-07-29T05:52:21;19.50;92.00
27413;DHT22;14871;52.702;5.230;2022-07-29T05:54:47;19.50;92.00
27413;DHT22;14871;52.702;5.230;2022-07-29T05:57:21;19.50;92.00
27413;DHT22;14871;52.702;5.230;2022-07-29T05:59:47;19.50;92.00
27413;DHT22;14871;52.702;5.230;2022-07-29T06:02:14;19.50;92.20
27413;DHT22;14871;52.702;5.230;2022-07-29T06:04:39;19.50;92.20
27413;DHT22;14871;52.702;5.230;2022-07-29T06:07:05;19.50;92.20
27413;DHT22;14871;52.702;5.230;2022-07-29T06:09:31;19.40;92.30
27413;DHT22;14871;52.702;5.230;2022-07-29T06:11:57;19.50;92.30
27413;DHT22;14871;52.702;5.230;2022-07-29T06:14:24;19.50;92.30
27413;DHT22;14871;52.702;5.230;2022-07-29T06:16:49;19.50;92.40
27413;DHT22;14871;52.702;5.230;2022-07-29T06:19:15;19.50;92.50
27413;DHT22;14871;52.702;5.230;2022-07-29T06:21:44;19.50;92.60
27413;DHT22;14871;52.702;5.230;2022-07-29T06:24:11;19.60;92.50
27413;DHT22;14871;52.702;5.230;2022-07-29T06:26:38;19.60;92.50
27413;DHT22;14871;52.702;5.230;2022-07-29T06:29:04;19.70;92.50
27413;DHT22;14871;52.702;5.230;2022-07-29T06:31:30;19.70;92.40
27413;DHT22;14871;52.702;5.230;2022-07-29T06:33:55;19.70;92.40
27413;DHT22;14871;52.702;5.230;2022-07-29T06:36:21;19.70;92.40
27413;DHT22;14871;52.702;5.230;2022-07-29T06:38:46;19.70;92.30
27413;DHT22;14871;52.702;5.230;2022-07-29T06:41:12;19.70;92.30
27413;DHT22;14871;52.702;5.230;2022-07-29T06:43:42;19.70;92.20
27413;DHT22;14871;52.702;5.230;2022-07-29T06:46:12;19.90;92.00
27413;DHT22;14871;52.702;5.230;2022-07-29T06:48:39;19.80;92.00
27413;DHT22;14871;52.702;5.230;2022-07-29T06:51:06;19.90;92.10
27413;DHT22;14871;52.702;5.230;2022-07-29T06:53:32;20.00;92.00
27413;DHT22;14871;52.702;5.230;2022-07-29T06:55:59;19.90;91.90
27413;DHT22;14871;52.702;5.230;2022-07-29T06:58:26;20.00;92.00
27413;DHT22;14871;52.702;5.230;2022-07-29T07:00:52;20.00;91.90
27413;DHT22;14871;52.702;5.230;2022-07-29T07:03:18;20.00;91.80
27413;DHT22;14871;52.702;5.230;2022-07-29T07:05:45;20.10;91.80
27413;DHT22;14871;52.702;5.230;2022-07-29T07:08:11;20.10;91.70
27413;DHT22;14871;52.702;5.230;2022-07-29T07:10:37;20.10;91.70
27413;DHT22;14871;52.702;5.230;2022-07-29T07:13:04;20.10;91.70
27413;DHT22;14871;52.702;5.230;2022-07-29T07:15:30;20.10;91.70
27413;DHT22;14871;52.702;5.230;2022-07-29T07:17:56;20.20;91.60
27413;DHT22;14871;52.702;5.230;2022-07-29T07:20:23;20.20;91.70
27413;DHT22;14871;52.702;5.230;2022-07-29T07:22:48;20.20;91.70
27413;DHT22;14871;52.702;5.230;2022-07-29T07:25:14;20.20;91.70
27413;DHT22;14871;52.702;5.230;2022-07-29T07:27:40;20.30;91.60
27413;DHT22;14871;52.702;5.230;2022-07-29T07:30:06;20.30;91.60
27413;DHT22;14871;52.702;5.230;2022-07-29T07:32:33;20.30;91.50
27413;DHT22;14871;52.702;5.230;2022-07-29T07:34:59;20.40;91.40
27413;DHT22;14871;52.702;5.230;2022-07-29T07:37:25;20.40;91.30
27413;DHT22;14871;52.702;5.230;2022-07-29T07:39:52;20.50;91.20
27413;DHT22;14871;52.702;5.230;2022-07-29T07:42:18;20.60;91.20
27413;DHT22;14871;52.702;5.230;2022-07-29T07:44:44;20.60;91.00
27413;DHT22;14871;52.702;5.230;2022-07-29T07:47:11;20.70;91.00
27413;DHT22;14871;52.702;5.230;2022-07-29T07:49:37;20.70;90.80
27413;DHT22;14871;52.702;5.230;2022-07-29T07:52:03;20.70;91.00
27413;DHT22;14871;52.702;5.230;2022-07-29T07:54:28;20.70;90.70
27413;DHT22;14871;52.702;5.230;2022-07-29T07:56:54;20.70;90.70
27413;DHT22;14871;52.702;5.230;2022-07-29T07:59:20;20.70;90.70
27413;DHT22;14871;52.702;5.230;2022-07-29T08:01:45;20.70;90.70
27413;DHT22;14871;52.702;5.230;2022-07-29T08:04:11;20.80;90.60
27413;DHT22;14871;52.702;5.230;2022-07-29T08:06:37;20.80;90.70
27413;DHT22;14871;52.702;5.230;2022-07-29T08:09:03;20.80;91.00
27413;DHT22;14871;52.702;5.230;2022-07-29T08:11:29;20.90;91.00
27413;DHT22;14871;52.702;5.230;2022-07-29T08:13:55;20.90;90.70
27413;DHT22;14871;52.702;5.230;2022-07-29T08:16:21;21.00;90.50
27413;DHT22;14871;52.702;5.230;2022-07-29T08:18:47;20.90;90.50
27413;DHT22;14871;52.702;5.230;2022-07-29T08:21:14;21.00;90.70
27413;DHT22;14871;52.702;5.230;2022-07-29T08:23:40;21.20;90.70
27413;DHT22;14871;52.702;5.230;2022-07-29T08:26:11;21.40;90.60
27413;DHT22;14871;52.702;5.230;2022-07-29T08:28:38;21.70;90.30
27413;DHT22;14871;52.702;5.230;2022-07-29T08:31:04;22.10;89.20
27413;DHT22;14871;52.702;5.230;2022-07-29T08:33:29;22.40;87.70
27413;DHT22;14871;52.702;5.230;2022-07-29T08:35:55;22.60;87.00
27413;DHT22;14871;52.702;5.230;2022-07-29T08:38:21;22.60;87.10
27413;DHT22;14871;52.702;5.230;2022-07-29T08:40:47;22.80;86.20
27413;DHT22;14871;52.702;5.230;2022-07-29T08:43:13;23.00;85.50
27413;DHT22;14871;52.702;5.230;2022-07-29T08:45:44;23.20;84.20
27413;DHT22;14871;52.702;5.230;2022-07-29T08:48:15;23.30;83.30
27413;DHT22;14871;52.702;5.230;2022-07-29T08:50:42;23.50;83.70
27413;DHT22;14871;52.702;5.230;2022-07-29T08:53:12;23.60;83.60
27413;DHT22;14871;52.702;5.230;2022-07-29T08:55:45;23.80;81.60
27413;DHT22;14871;52.702;5.230;2022-07-29T08:58:13;24.00;81.60
27413;DHT22;14871;52.702;5.230;2022-07-29T09:00:45;24.00;81.00
27413;DHT22;14871;52.702;5.230;2022-07-29T09:03:15;24.20;80.40
27413;DHT22;14871;52.702;5.230;2022-07-29T09:05:45;24.20;79.60
27413;DHT22;14871;52.702;5.230;2022-07-29T09:08:12;24.30;79.90
27413;DHT22;14871;52.702;5.230;2022-07-29T09:10:38;24.30;78.40
27413;DHT22;14871;52.702;5.230;2022-07-29T09:13:04;24.30;78.40
27413;DHT22;14871;52.702;5.230;2022-07-29T09:15:30;24.30;77.50
27413;DHT22;14871;52.702;5.230;2022-07-29T09:17:56;24.20;78.10
27413;DHT22;14871;52.702;5.230;2022-07-29T09:20:24;24.00;78.00
27413;DHT22;14871;52.702;5.230;2022-07-29T09:22:51;24.00;78.90
27413;DHT22;14871;52.702;5.230;2022-07-29T09:25:38;23.90;79.10
27413;DHT22;14871;52.702;5.230;2022-07-29T09:28:16;24.00;79.80
27413;DHT22;14871;52.702;5.230;2022-07-29T09:30:53;24.10;79.00
27413;DHT22;14871;52.702;5.230;2022-07-29T09:33:21;24.20;78.40
27413;DHT22;14871;52.702;5.230;2022-07-29T09:35:59;24.40;77.90
27413;DHT22;14871;52.702;5.230;2022-07-29T09:38:24;24.70;78.00
27413;DHT22;14871;52.702;5.230;2022-07-29T09:41:00;25.00;76.50
27413;DHT22;14871;52.702;5.230;2022-07-29T09:43:27;24.90;74.00
27413;DHT22;14871;52.702;5.230;2022-07-29T09:45:52;25.00;74.90
27413;DHT22;14871;52.702;5.230;2022-07-29T09:48:25;25.00;74.20
27413;DHT22;14871;52.702;5.230;2022-07-29T09:50:51;25.30;73.60
27413;DHT22;14871;52.702;5.230;2022-07-29T09:53:32;25.40;72.30
27413;DHT22;14871;52.702;5.230;2022-07-29T09:55:58;25.70;71.90
27413;DHT22;14871;52.702;5.230;2022-07-29T09:58:24;25.90;72.60
27413;DHT22;14871;52.702;5.230;2022-07-29T10:00:52;26.20;72.50
27413;DHT22;14871;52.702;5.230;2022-07-29T10:03:18;26.40;72.70
27413;DHT22;14871;52.702;5.230;2022-07-29T10:05:44;26.60;70.00
27413;DHT22;14871;52.702;5.230;2022-07-29T10:08:11;26.60;69.10
27413;DHT22;14871;52.702;5.230;2022-07-29T10:10:40;26.80;69.30
27413;DHT22;14871;52.702;5.230;2022-07-29T10:13:11;26.80;70.00
27413;DHT22;14871;52.702;5.230;2022-07-29T10:15:42;26.90;69.60
27413;DHT22;14871;52.702;5.230;2022-07-29T10:18:11;27.00;69.70
27413;DHT22;14871;52.702;5.230;2022-07-29T10:20:37;27.20;69.10
27413;DHT22;14871;52.702;5.230;2022-07-29T10:23:04;27.50;67.70
27413;DHT22;14871;52.702;5.230;2022-07-29T10:25:30;27.60;66.40
27413;DHT22;14871;52.702;5.230;2022-07-29T10:27:56;27.60;67.00
27413;DHT22;14871;52.702;5.230;2022-07-29T10:30:23;27.60;67.00
27413;DHT22;14871;52.702;5.230;2022-07-29T10:43:58;28.20;63.80
27413;DHT22;14871;52.702;5.230;2022-07-29T10:46:25;28.10;63.80
27413;DHT22;14871;52.702;5.230;2022-07-29T10:59:38;27.80;62.80
27413;DHT22;14871;52.702;5.230;2022-07-29T11:04:59;28.10;65.20
27413;DHT22;14871;52.702;5.230;2022-07-29T11:07:25;28.20;63.70
27413;DHT22;14871;52.702;5.230;2022-07-29T11:15:05;28.60;63.20
27413;DHT22;14871;52.702;5.230;2022-07-29T11:20:45;28.60;63.00
27413;DHT22;14871;52.702;5.230;2022-07-29T11:23:31;28.70;64.00
27413;DHT22;14871;52.702;5.230;2022-07-29T11:28:42;28.70;61.30
27413;DHT22;14871;52.702;5.230;2022-07-29T11:31:16;28.70;62.80
27413;DHT22;14871;52.702;5.230;2022-07-29T11:33:42;28.80;62.70
27413;DHT22;14871;52.702;5.230;2022-07-29T11:36:13;29.00;61.80
27413;DHT22;14871;52.702;5.230;2022-07-29T11:38:40;29.00;61.90
27413;DHT22;14871;52.702;5.230;2022-07-29T11:41:25;28.60;61.70
27413;DHT22;14871;52.702;5.230;2022-07-29T11:43:51;28.70;62.50
27413;DHT22;14871;52.702;5.230;2022-07-29T11:46:46;28.70;62.30
27413;DHT22;14871;52.702;5.230;2022-07-29T11:49:22;29.00;61.50
27413;DHT22;14871;52.702;5.230;2022-07-29T11:51:55;29.00;61.60
27413;DHT22;14871;52.702;5.230;2022-07-29T11:54:27;29.20;61.40
27413;DHT22;14871;52.702;5.230;2022-07-29T11:56:55;29.50;62.40
27413;DHT22;14871;52.702;5.230;2022-07-29T11:59:22;29.70;62.00
27413;DHT22;14871;52.702;5.230;2022-07-29T12:01:58;29.70;61.10
27413;DHT22;14871;52.702;5.230;2022-07-29T12:04:25;29.60;61.00
27413;DHT22;14871;52.702;5.230;2022-07-29T12:06:53;29.40;61.10
27413;DHT22;14871;52.702;5.230;2022-07-29T12:09:20;29.40;61.90
27413;DHT22;14871;52.702;5.230;2022-07-29T12:11:46;29.50;62.30
27413;DHT22;14871;52.702;5.230;2022-07-29T12:14:32;29.70;61.20
27413;DHT22;14871;52.702;5.230;2022-07-29T12:16:59;29.80;61.70
27413;DHT22;14871;52.702;5.230;2022-07-29T12:19:26;29.90;61.20
27413;DHT22;14871;52.702;5.230;2022-07-29T12:21:53;30.00;61.90
27413;DHT22;14871;52.702;5.230;2022-07-29T12:24:24;30.00;61.20
27413;DHT22;14871;52.702;5.230;2022-07-29T12:26:51;30.20;60.20
27413;DHT22;14871;52.702;5.230;2022-07-29T12:29:18;30.10;59.70
27413;DHT22;14871;52.702;5.230;2022-07-29T12:31:44;30.00;59.70
27413;DHT22;14871;52.702;5.230;2022-07-29T12:34:15;30.10;60.20
27413;DHT22;14871;52.702;5.230;2022-07-29T12:36:41;30.30;59.50
27413;DHT22;14871;52.702;5.230;2022-07-29T12:39:08;30.20;59.30
27413;DHT22;14871;52.702;5.230;2022-07-29T12:41:34;30.40;59.00
27413;DHT22;14871;52.702;5.230;2022-07-29T12:44:00;30.30;59.00
27413;DHT22;14871;52.702;5.230;2022-07-29T12:46:26;30.40;58.70
27413;DHT22;14871;52.702;5.230;2022-07-29T12:48:53;30.40;58.50
27413;DHT22;14871;52.702;5.230;2022-07-29T12:51:40;30.30;59.70
27413;DHT22;14871;52.702;5.230;2022-07-29T12:54:13;30.60;60.70
27413;DHT22;14871;52.702;5.230;2022-07-29T12:56:44;30.70;59.60
27413;DHT22;14871;52.702;5.230;2022-07-29T12:59:18;30.50;58.40
27413;DHT22;14871;52.702;5.230;2022-07-29T13:01:45;30.50;57.80
27413;DHT22;14871;52.702;5.230;2022-07-29T13:04:27;30.50;58.40
27413;DHT22;14871;52.702;5.230;2022-07-29T13:07:04;30.70;58.70
27413;DHT22;14871;52.702;5.230;2022-07-29T13:09:42;30.70;58.90
27413;DHT22;14871;52.702;5.230;2022-07-29T13:12:10;30.80;58.50
27413;DHT22;14871;52.702;5.230;2022-07-29T13:14:41;30.90;59.00
27413;DHT22;14871;52.702;5.230;2022-07-29T13:21:59;30.70;57.90
27413;DHT22;14871;52.702;5.230;2022-07-29T13:24:25;30.90;58.20
27413;DHT22;14871;52.702;5.230;2022-07-29T13:26:50;30.80;58.10
27413;DHT22;14871;52.702;5.230;2022-07-29T13:29:17;30.50;58.70
27413;DHT22;14871;52.702;5.230;2022-07-29T13:31:43;30.60;59.00
27413;DHT22;14871;52.702;5.230;2022-07-29T13:34:08;30.80;59.60
27413;DHT22;14871;52.702;5.230;2022-07-29T13:36:34;31.00;58.30
27413;DHT22;14871;52.702;5.230;2022-07-29T13:39:00;31.10;59.10
27413;DHT22;14871;52.702;5.230;2022-07-29T13:41:27;31.00;57.40
27413;DHT22;14871;52.702;5.230;2022-07-29T13:43:53;30.80;57.70
27413;DHT22;14871;52.702;5.230;2022-07-29T13:46:19;30.70;57.50
27413;DHT22;14871;52.702;5.230;2022-07-29T13:48:44;30.80;57.90
27413;DHT22;14871;52.702;5.230;2022-07-29T13:51:10;30.70;58.20
27413;DHT22;14871;52.702;5.230;2022-07-29T13:53:36;30.80;58.10
27413;DHT22;14871;52.702;5.230;2022-07-29T13:56:01;30.80;56.50
27413;DHT22;14871;52.702;5.230;2022-07-29T13:58:27;30.70;57.60
27413;DHT22;14871;52.702;5.230;2022-07-29T14:00:53;30.70;57.30
27413;DHT22;14871;52.702;5.230;2022-07-29T14:03:19;30.70;57.60
27413;DHT22;14871;52.702;5.230;2022-07-29T14:05:44;30.60;56.40
27413;DHT22;14871;52.702;5.230;2022-07-29T14:08:10;30.60;56.80
27413;DHT22;14871;52.702;5.230;2022-07-29T14:10:36;30.60;56.80
27413;DHT22;14871;52.702;5.230;2022-07-29T14:13:01;30.60;56.60
27413;DHT22;14871;52.702;5.230;2022-07-29T14:15:27;30.80;57.10
27413;DHT22;14871;52.702;5.230;2022-07-29T14:17:52;30.90;58.30
27413;DHT22;14871;52.702;5.230;2022-07-29T14:20:18;30.90;58.30
27413;DHT22;14871;52.702;5.230;2022-07-29T14:22:44;30.90;57.80
27413;DHT22;14871;52.702;5.230;2022-07-29T14:25:10;31.00;57.10
27413;DHT22;14871;52.702;5.230;2022-07-29T14:27:35;31.00;57.30
27413;DHT22;14871;52.702;5.230;2022-07-29T14:30:01;30.80;57.20
27413;DHT22;14871;52.702;5.230;2022-07-29T14:32:27;30.70;57.30
27413;DHT22;14871;52.702;5.230;2022-07-29T14:34:52;30.70;57.10
27413;DHT22;14871;52.702;5.230;2022-07-29T14:37:18;30.70;58.30
27413;DHT22;14871;52.702;5.230;2022-07-29T14:39:43;30.70;58.30
27413;DHT22;14871;52.702;5.230;2022-07-29T14:42:10;30.60;58.40
27413;DHT22;14871;52.702;5.230;2022-07-29T14:44:36;30.50;58.20
27413;DHT22;14871;52.702;5.230;2022-07-29T14:47:01;30.50;58.50
27413;DHT22;14871;52.702;5.230;2022-07-29T14:49:27;30.40;57.80
27413;DHT22;14871;52.702;5.230;2022-07-29T14:51:53;30.40;57.50
27413;DHT22;14871;52.702;5.230;2022-07-29T14:54:18;30.30;58.10
27413;DHT22;14871;52.702;5.230;2022-07-29T14:56:44;30.40;58.10
27413;DHT22;14871;52.702;5.230;2022-07-29T14:59:09;30.10;58.00
27413;DHT22;14871;52.702;5.230;2022-07-29T15:01:35;30.10;58.10
27413;DHT22;14871;52.702;5.230;2022-07-29T15:04:00;30.10;58.90
27413;DHT22;14871;52.702;5.230;2022-07-29T15:06:26;30.30;59.30
27413;DHT22;14871;52.702;5.230;2022-07-29T15:08:52;30.40;58.40
27413;DHT22;14871;52.702;5.230;2022-07-29T15:11:17;30.50;58.90
27413;DHT22;14871;52.702;5.230;2022-07-29T15:13:43;30.40;58.80
27413;DHT22;14871;52.702;5.230;2022-07-29T15:16:09;30.50;59.20
27413;DHT22;14871;52.702;5.230;2022-07-29T15:18:35;30.60;58.70
27413;DHT22;14871;52.702;5.230;2022-07-29T15:21:03;30.60;59.20
27413;DHT22;14871;52.702;5.230;2022-07-29T15:23:28;30.70;58.20
27413;DHT22;14871;52.702;5.230;2022-07-29T15:25:54;30.60;59.30
27413;DHT22;14871;52.702;5.230;2022-07-29T15:28:19;30.50;59.20
27413;DHT22;14871;52.702;5.230;2022-07-29T15:30:45;30.30;59.70
27413;DHT22;14871;52.702;5.230;2022-07-29T15:33:11;30.30;59.60
27413;DHT22;14871;52.702;5.230;2022-07-29T15:35:37;30.30;59.20
27413;DHT22;14871;52.702;5.230;2022-07-29T15:38:02;30.10;60.10
27413;DHT22;14871;52.702;5.230;2022-07-29T15:40:28;29.90;59.90
27413;DHT22;14871;52.702;5.230;2022-07-29T15:42:54;29.80;60.20
27413;DHT22;14871;52.702;5.230;2022-07-29T15:45:20;29.90;61.20
27413;DHT22;14871;52.702;5.230;2022-07-29T15:47:46;29.80;61.00
27413;DHT22;14871;52.702;5.230;2022-07-29T15:50:11;29.90;60.10
27413;DHT22;14871;52.702;5.230;2022-07-29T15:52:42;29.90;59.20
27413;DHT22;14871;52.702;5.230;2022-07-29T15:55:08;29.90;59.10
27413;DHT22;14871;52.702;5.230;2022-07-29T15:57:34;29.90;58.80
27413;DHT22;14871;52.702;5.230;2022-07-29T15:59:59;29.80;59.10
27413;DHT22;14871;52.702;5.230;2022-07-29T16:02:25;29.40;59.80
27413;DHT22;14871;52.702;5.230;2022-07-29T16:04:51;29.20;62.20
27413;DHT22;14871;52.702;5.230;2022-07-29T16:07:16;29.20;62.20
27413;DHT22;14871;52.702;5.230;2022-07-29T16:09:42;29.10;62.20
27413;DHT22;14871;52.702;5.230;2022-07-29T16:12:08;29.00;63.60
27413;DHT22;14871;52.702;5.230;2022-07-29T16:14:34;29.10;63.60
27413;DHT22;14871;52.702;5.230;2022-07-29T16:17:00;29.20;63.30
27413;DHT22;14871;52.702;5.230;2022-07-29T16:19:28;29.20;63.00
27413;DHT22;14871;52.702;5.230;2022-07-29T16:21:54;29.20;62.00